Crawford, CO

4:04 PM MDT on September 22, 2014 (GMT -0600)
Delta | Change Station
CLOSE
Current Station
Airport
Location: Delta,
Elevation: 5194 ft
Nearby Weather Stations

Elev 5194 ft 38.79 °N, 108.07 °W | Updated 9 minutes ago

Partly Cloudy
Partly Cloudy
77 °F
Feels Like 77 °F
N
14
Wind Variable Wind from West

Today
High -- | Low -- °F
--% Chance of Precip.
Yesterday
High -- | Low -- °F
Precip. -- in
6:58 AM 7:07 PM
Waning Crescent, 2% visible
Pressure 30.17 in
Visibility 10.0 miles
Clouds Mostly Cloudy 9500 ft
Dew Point 52 °F
Humidity 43%
Rainfall 0.28 in
Snow Depth 0 in , 0 in , 0 in
UV 2 out of 12
Pollen 4.70 out of 12
Air Quality Not available.
Flu Activity Not available.
METAR KAJZ 222155Z AUTO 26012KT 10SM RA BKN095 25/11 A3017 RMK AO2 T02480113

More Conditions Fewer Conditions

Pressure 30.17 in
Visibility 10.0 miles
Clouds Mostly Cloudy 9500 ft
Dew Point 52 °F
Humidity 43%
Rainfall 0.28 in
Snow Depth 0 in , 0 in , 0 in
UV 2 out of 12
Pollen 4.70 out of 12
Air Quality Not available.
Flu Activity Not available.
METAR KAJZ 222155Z AUTO 26012KT 10SM RA BKN095 25/11 A3017 RMK AO2 T02480113

More Conditions Fewer Conditions

10-Day Weather Forecast

Almanac

Astronomy

Sep. 22, 2014 Rise Set
Actual Time 6:58 AM MDT 7:07 PM MDT
Civil Twilight 6:31 AM MDT 7:33 PM MDT
Nautical Twilight 6:00 AM MDT 8:04 PM MDT
Astronomical Twilight 5:29 AM MDT 8:36 PM MDT
Moon 5:30 AM MDT 6:16 PM MDT
Length of Visible Light 13h 02m
Length of Day
12h 09m
Tomorrow will be 2m 29s shorter.
Waning Crescent, 2% of the Moon is Illuminated
Today
Waning Crescent
Sep 24
New
Oct 1
First Quarter
Oct 8
Full
Oct 15
Last Quarter

Today's Extremes

State Highs State Lows

Community

WunderPhotos

Upload Photos

1,755,535 photos uploaded!

WunderBlogs® & News

By Dr. Jeff Masters
Director of Meteorology, Weather Underground
By Kari Strenfel
Meteorologist, Weather Underground
By Christopher C. Burt
Weather Historian, Weather Underground
September 22, 2014
September 22, 2014
September 22, 2014

Nearby

Snow Depth

Station Depth Elevation
Phantom Valley 0 in 9030 ft
Niwot 0 in 9910 ft
Joe Wright 0 in 10120 ft
Lily Pond 0 in 11000 ft
Jones Pass 0 in 10400 ft

Earthquake Activity

City Distance Mag. Time & Date
No recent earthquake activity has been reported nearby.
Minimum magnitude displayed is 2.5.

Coastal Water Temperatures

Place Temperature
No Stations Reporting

Nearby Weather Stations